Hlavní strana
METAR-TAF:

METAR-TAF

Letiště :

Fairfield Municipal Airport

Fairfield, Illinois, Spojené státy americké

zeměpisná šířka: 38-22-43N, zeměpisná délka: 088-24-46W, výška: 133 m

Aktuální stav počasí

Zpráva byla vytvořena před 20 minutami, v 01:55 UTC
Severoseverozápadní vítr 5 kt
Teplota 4°C
Vlhkost vzduchu 100%
Tlak 1014 hPa
Viditelnost: 4.8 km
Zataženo ve výšce 500 ft
slabé mrholení

METAR: KFWC 260155Z AUTO 33005KT 3SM -DZ OVC005 04/04 A2995 RMK AO1 T00350035

Čas: 20:15 (02:15 UTC)


TAF: chybějící

Stav a předpovědi počasí z více než 4 000 letišť (zprávy METAR a TAF).

Červené a žluté tečky na mapě představují dostupné meteorologické stanice.

Když kurzor umístíte na tečku, zobrazí se název stanice.

Pak kliknutím zobrazíte stav a předpověď počasí.

Chcete-li změnit mapu, kliknutím na zelené tlačítko se znaménkem +mapu přiblížíte, kliknutím na zelené tlačítko se znaménkem – mapu oddálíte a kliknutím na zelené šipky přejdete na sousední mapy.


METAR-TAF: